Terminal Aerodrome Forecast
Issued by NWS Central Illinois

Home | Current Version | Previous Version | Text Only | Print | Product List | Glossary On
Versions: 1 2 3 4 5 6 7 8 9 10 11 12 13 14 15 16 17 18 19 20 21 22 23 24 25
000
FTUS43 KILX 261700
TAFSPI
TAF
KSPI 261735Z 2618/2718 13008KT P6SM VCSH SCT025 BKN050
     FM262000 08005KT 2SM -SN BKN015
     FM270400 36008KT P6SM BKN015
     FM271000 31012KT P6SM BKN015=

USA.gov is the U.S. government's official web portal to all federal, state and local government web resources and services.